Current Weather

Ronald Reagan Washington Ntl

Arlington, Virginia (KDCA)

Report from: Friday, April 19, 2024 4:52 AM EDT
Current time: Friday, April 19, 2024 5:06 AM EDT

Nearby weather – Weather history – Daily summaries
Weather forecast

Temperature12.2°C (54.0°F)
Dew point8.9°C (48.0°F)
Winds 7 kts (3.6 m/s, 8.1 mph) East-Southeast (110°)
Visibility10 mi. (16.1 km)
Clouds Ceiling: Overcast 1,500 ft. (457 m)
Altimeter30.11 in.Hg (1020 mB)
Relative humidity80 %
Density altitude-382 ft. (-116 m)
Sea-level pressure102.0 kPa (1020 mB, 30.11 in.Hg)
Remarks Automated weather observing station with precipitation discriminator
Pressure falling, then rising
Flight conditions Marginal Visual Meteorological Conditions
Raw dataKDCA 190852Z 11007KT 10SM OVC015 12/09 A3011 RMK AO2 SLP195 T01220089 55004
An error has occurred. This application may no longer respond until reloaded. Reload 🗙